Flight Track Log - Related Links

Times and Time Zones

All times are in EDT time to prevent confusion due to time zone crossing. See the CTL13 flight status page for this flight to view local times or setup timezone preferences in your user account.

Time Position Orientation Groundspeed Altitude Reporting Facility
EDT Latitude Longitude Course Direction KTS MPH feet Rate Location/Type
Tue 11:13:20 PM 41.7833 -87.7000 66° East 134 154 1,800  Level Chicago TRACON
Tue 11:14:14 PM 41.8000 -87.6500 66° East 135 155 2,600 895 Climbing Chicago TRACON
Tue 11:15:14 PM 41.8000 -87.6000 90° East 138 159 3,500 850 Climbing Chicago TRACON
Tue 11:16:14 PM 41.8000 -87.5500 90° East 146 168 4,300 843 Climbing Chicago TRACON
Tue 11:17:15 PM 41.8167 -87.5000 66° East 145 167 5,200 793 Climbing Chicago TRACON
Tue 11:18:15 PM 41.8333 -87.4500 66° East 149 171 5,900 400 Climbing Chicago TRACON
Tue 11:19:15 PM 41.8667 -87.4000 48° Northeast 177 204 6,000  Climbing Chicago TRACON
Tue 11:20:19 PM 41.8906 -87.3469 59° Northeast 179 206 5,900 -48 Descending Chicago Center
Tue 11:21:20 PM 41.9192 -87.2914 55° Northeast 182 209 5,900  Level Chicago Center
Tue 11:22:21 PM 41.9494 -87.2372 53° Northeast 181 208 5,900 49 Level Chicago Center
Tue 11:23:22 PM 41.9794 -87.1825 54° Northeast 182 209 6,000  Climbing Chicago Center
Tue 11:24:23 PM 42.0081 -87.1267 55° Northeast 182 209 5,900 -50 Descending Chicago Center
Tue 11:25:23 PM 42.0386 -87.0708 54° Northeast 184 212 5,900 347 Level Chicago Center
Tue 11:26:24 PM 42.0683 -87.0161 54° Northeast 179 206 6,600 541 Climbing Chicago Center
Tue 11:27:25 PM 42.0964 -86.9650 53° Northeast 172 198 7,000 197 Climbing Chicago Center
Tue 11:28:26 PM 42.1250 -86.9097 55° Northeast 178 205 7,000  Level Chicago Center
Tue 11:29:27 PM 42.1572 -86.8533 52° Northeast 187 215 7,000  Level Chicago Center
Tue 11:30:28 PM 42.1864 -86.7986 54° Northeast 183 211 7,000  Level Chicago Center
Tue 11:31:29 PM 42.2169 -86.7439 53° Northeast 181 208 7,000  Level Chicago Center
Tue 11:32:30 PM 42.2467 -86.6892 54° Northeast 180 207 7,000  Level Chicago Center
Tue 11:33:31 PM 42.2750 -86.6361 54° Northeast 176 203 7,000  Level Chicago Center
Tue 11:34:31 PM 42.3083 -86.5739 54° Northeast 177 204 7,000  Level Chicago Center
Tue 11:35:32 PM 42.3378 -86.5200 54° Northeast 178 205 7,000  Level Chicago Center
Tue 11:36:33 PM 42.3661 -86.4667 54° Northeast 176 203 7,000  Level Chicago Center
Tue 11:38:00 PM 42.4117 -86.3987 48° Northeast  Level FlightAware Approximate
Tue 11:38:35 PM 42.4242 -86.3628 48° Northeast 176 203 7,000  Level Chicago Center
Tue 11:39:35 PM 42.4531 -86.3097 54° Northeast 176 203 7,000  Level Chicago Center
Tue 11:40:36 PM 42.4822 -86.2581 53° Northeast 175 201 7,000  Level Chicago Center
Tue 11:41:37 PM 42.5108 -86.2053 54° Northeast 175 201 7,000  Level Chicago Center
Tue 11:42:38 PM 42.5408 -86.1519 53° Northeast 176 203 7,000 -148 Level Chicago Center
Tue 11:43:39 PM 42.5731 -86.1006 50° Northeast 178 205 6,700 -545 Descending Chicago Center
Tue 11:44:39 PM 42.6114 -86.0314 53° Northeast 189 217 5,900 -645 Descending Chicago Center
Tue 11:45:40 PM 42.6425 -85.9697 56° Northeast 197 227 5,400 -541 Descending Chicago Center
Tue 11:46:41 PM 42.6728 -85.9106 55° Northeast 194 223 4,800 -639 Descending Chicago Center
Tue 11:47:42 PM 42.7022 -85.8572 53° Northeast 184 212 4,100 -595 Descending Chicago Center
Tue 11:48:42 PM 42.7314 -85.8058 52° Northeast 175 201 3,600 -446 Descending Chicago Center
Tue 11:49:43 PM 42.7575 -85.7558 55° Northeast 167 192 3,200 -443 Descending Chicago Center
Tue 11:50:44 PM 42.7831 -85.7069 55° Northeast 163 188 2,700 -443 Descending Chicago Center
Tue 11:51:45 PM 42.8072 -85.6619 54° Northeast 156 180 2,300 -397 Descending Chicago Center
Tue 11:52:45 PM 42.8306 -85.6189 54° Northeast 149 171 1,900 -298 Descending Chicago Center
Tue 11:53:46 PM 42.8519 -85.5822 51° Northeast 138 159 1,700 -393 Descending Chicago Center
Tue 11:54:47 PM 42.8711 -85.5564 45° Northeast 117 135 1,100 -347 Descending Chicago Center
Tue 11:55:47 PM 42.8900 -85.5317 44° Northeast 114 131 1,000 -100 Descending Chicago Center
Tue 11:57:00 PM 42.8808 -85.5228 56° Northeast  Level Estimated
Wed 12:04:00 AM 42.8808 -85.5228 56° Northeast  Level Estimated

Login

Don't have an account? Register now (free) for customized features, flight alerts, and more!